createdAt,value
2022-10-18T00:01:06.534Z,52.38
2022-10-18T00:06:10.875Z,51.90
2022-10-18T00:11:15.642Z,53.07
2022-10-18T00:16:19.784Z,52.60
2022-10-18T00:21:24.834Z,52.14
2022-10-18T00:26:32.256Z,52.50
2022-10-18T00:31:37.834Z,51.68
2022-10-18T00:36:41.785Z,51.76
2022-10-18T00:41:47.057Z,51.78
2022-10-18T00:46:50.529Z,51.82
2022-10-18T00:51:58.150Z,51.86
2022-10-18T00:57:03.606Z,51.71
2022-10-18T01:02:08.349Z,51.56
2022-10-18T01:07:27.889Z,51.41
2022-10-18T01:12:48.748Z,51.74
2022-10-18T01:18:00.627Z,51.49
2022-10-18T01:23:07.292Z,51.67
2022-10-18T01:28:26.910Z,51.63
2022-10-18T01:33:36.995Z,51.80
2022-10-18T01:38:40.818Z,52.04
2022-10-18T01:43:45.393Z,51.59
2022-10-18T01:48:50.383Z,52.46
2022-10-18T01:53:54.197Z,52.69
2022-10-18T01:59:06.662Z,52.45
2022-10-18T02:04:20.953Z,52.28
2022-10-18T02:09:31.231Z,52.77
2022-10-18T02:14:34.924Z,52.49
2022-10-18T02:19:43.051Z,52.35
2022-10-18T02:24:50.992Z,52.78
2022-10-18T02:29:54.753Z,53.05
2022-10-18T02:35:01.453Z,52.97
2022-10-18T02:40:06.268Z,53.23
2022-10-18T02:45:09.905Z,53.16
2022-10-18T02:50:15.184Z,52.87
2022-10-18T02:55:18.603Z,53.25
2022-10-18T03:00:21.987Z,53.86
2022-10-18T03:05:26.864Z,53.15
2022-10-18T03:10:30.164Z,52.85
2022-10-18T03:15:33.468Z,52.87
2022-10-18T03:20:38.148Z,53.06
2022-10-18T03:25:44.220Z,53.39
2022-10-18T03:30:49.690Z,53.31
2022-10-18T03:35:54.451Z,53.19
2022-10-18T03:40:57.846Z,53.68
2022-10-18T03:46:01.489Z,54.20
2022-10-18T03:51:06.526Z,53.26
2022-10-18T03:56:09.895Z,52.90
2022-10-18T04:01:13.499Z,53.09
2022-10-18T04:06:18.238Z,52.65
2022-10-18T04:11:21.537Z,52.99
2022-10-18T04:16:24.945Z,52.66
2022-10-18T04:21:29.741Z,52.83
2022-10-18T04:26:33.094Z,52.71
2022-10-18T04:31:36.409Z,52.89
2022-10-18T04:36:41.289Z,53.20
2022-10-18T04:41:44.792Z,52.71
2022-10-18T04:46:48.266Z,52.70
2022-10-18T04:51:53.094Z,52.91
2022-10-18T04:56:56.624Z,53.25
2022-10-18T05:02:00.122Z,52.92
2022-10-18T05:07:06.503Z,52.85
2022-10-18T05:12:09.918Z,53.12
2022-10-18T05:17:13.337Z,52.77
2022-10-18T05:22:18.147Z,52.87
2022-10-18T05:27:21.537Z,53.13
2022-10-18T05:32:24.973Z,52.91
2022-10-18T05:37:29.850Z,52.81
2022-10-18T05:42:33.519Z,53.16
2022-10-18T05:47:37.044Z,52.88
2022-10-18T05:52:41.826Z,52.97
2022-10-18T05:57:45.227Z,53.15
2022-10-18T06:02:49.128Z,53.18
2022-10-18T06:07:53.983Z,53.24
2022-10-18T06:12:57.349Z,53.13
2022-10-18T06:18:00.704Z,53.42
2022-10-18T06:23:05.543Z,53.48
2022-10-18T06:28:11.461Z,53.12
2022-10-18T06:33:15.756Z,53.35
2022-10-18T06:38:20.628Z,53.28
2022-10-18T06:43:24.718Z,53.25
2022-10-18T06:48:28.184Z,53.40
2022-10-18T06:53:34.186Z,53.69
2022-10-18T06:58:38.047Z,53.46
2022-10-18T07:03:41.450Z,53.41
2022-10-18T07:08:47.283Z,53.79
2022-10-18T07:13:51.102Z,53.68
2022-10-18T07:18:54.520Z,53.18
2022-10-18T07:23:59.346Z,53.33
2022-10-18T07:29:06.374Z,53.29
2022-10-18T07:34:13.031Z,52.98
2022-10-18T07:39:18.013Z,53.13
2022-10-18T07:44:21.438Z,52.99
2022-10-18T07:49:25.098Z,53.51
2022-10-18T07:54:30.292Z,54.86
2022-10-18T07:59:33.770Z,53.81
2022-10-18T08:04:37.193Z,53.61
2022-10-18T08:09:42.038Z,53.07
2022-10-18T08:14:45.463Z,54.83
2022-10-18T08:19:58.538Z,54.00
2022-10-18T08:25:13.968Z,54.17
2022-10-18T08:30:17.645Z,53.61
2022-10-18T08:35:21.222Z,53.76
2022-10-18T08:40:27.486Z,53.59
2022-10-18T08:45:42.503Z,52.92
2022-10-18T08:50:47.089Z,52.67
2022-10-18T08:55:55.868Z,52.22
2022-10-18T09:01:04.565Z,52.77
2022-10-18T09:06:18.672Z,53.22
2022-10-18T09:11:37.084Z,52.56
2022-10-18T09:16:45.839Z,54.24
2022-10-18T09:21:53.844Z,53.52
2022-10-18T09:27:05.186Z,53.86
2022-10-18T09:32:26.179Z,53.57
2022-10-18T09:37:31.698Z,55.71
2022-10-18T09:42:39.009Z,53.57
2022-10-18T09:47:47.198Z,54.82
2022-10-18T09:52:54.013Z,54.97
2022-10-18T09:58:01.889Z,53.34
2022-10-18T10:03:10.968Z,55.03
2022-10-18T10:08:14.450Z,53.22
2022-10-18T10:13:23.077Z,51.76
2022-10-18T10:18:28.227Z,53.21
2022-10-18T10:23:33.797Z,52.56
2022-10-18T10:28:46.220Z,51.24
2022-10-18T10:33:59.678Z,50.04
2022-10-18T10:39:05.228Z,50.31
2022-10-18T10:44:18.090Z,49.16
2022-10-18T10:54:51.174Z,47.75
2022-10-18T10:59:58.276Z,46.11
2022-10-18T11:05:20.733Z,45.31
2022-10-18T11:10:25.804Z,44.01
2022-10-18T11:15:32.982Z,45.76
2022-10-18T11:20:42.082Z,46.35
2022-10-18T11:25:54.530Z,44.94
2022-10-18T11:31:11.071Z,43.44
2022-10-18T11:36:18.756Z,43.81
2022-10-18T11:41:31.449Z,43.92
2022-10-18T11:46:53.822Z,43.35
2022-10-18T11:52:08.802Z,42.03
2022-10-18T11:57:22.475Z,41.29
2022-10-18T12:02:47.933Z,41.17
2022-10-18T12:07:55.180Z,44.33
2022-10-18T12:13:02.050Z,40.95
2022-10-18T12:18:11.705Z,42.59
2022-10-18T12:23:17.489Z,43.59
2022-10-18T12:28:28.443Z,42.53
2022-10-18T12:33:38.226Z,42.30
2022-10-18T12:38:43.651Z,39.10
2022-10-18T12:43:53.200Z,39.03
2022-10-18T12:49:04.730Z,40.34
2022-10-18T12:54:12.683Z,40.54
2022-10-18T12:59:43.867Z,37.13
2022-10-18T13:04:48.706Z,36.97
2022-10-18T13:10:40.781Z,38.45
2022-10-18T13:15:45.540Z,35.58
2022-10-18T13:20:57.697Z,34.81
2022-10-18T13:26:05.656Z,35.82
2022-10-18T13:31:16.170Z,35.92
2022-10-18T13:36:25.976Z,33.86
2022-10-18T13:41:34.322Z,34.33
2022-10-18T13:47:35.406Z,34.17
2022-10-18T13:52:59.055Z,33.53
2022-10-18T13:58:09.850Z,33.81
2022-10-18T14:03:56.073Z,35.43
2022-10-18T14:09:09.573Z,36.64
2022-10-18T14:14:29.811Z,36.62
2022-10-18T14:19:38.846Z,37.98
2022-10-18T14:24:46.111Z,35.63
2022-10-18T14:29:50.196Z,34.18
2022-10-18T14:34:55.754Z,34.18
2022-10-18T14:40:07.003Z,35.16
2022-10-18T14:45:19.086Z,36.22
2022-10-18T14:50:23.693Z,35.72
2022-10-18T14:55:28.942Z,35.58
2022-10-18T15:00:38.226Z,34.79
2022-10-18T15:05:53.147Z,35.87
2022-10-18T15:10:58.235Z,35.04
2022-10-18T15:16:01.689Z,34.98
2022-10-18T15:21:21.960Z,33.60
